Terminal Aerodrome Forecast
Issued by NWS

Home | Current Version | Previous Version | Text Only | Print | Product List | Glossary On
Versions: 1 2 3 4 5 6 7 8 9 10 11 12 13 14 15 16 17 18 19
000
FTUS43 KGRB 072320
TAFCWA
TAF
KCWA 072320Z 0800/0824 35007KT P6SM SCT050
     FM080200 VRB03KT P6SM SKC
      TEMPO 0809/0813 5SM BR
     FM081400 18007KT P6SM SCT040
      AMD LTD TO CLD VIS AND WND 0703/0711=

USA.gov is the U.S. government's official web portal to all federal, state and local government web resources and services.